Time;durP1;ratioP1;P1;durP2;ratioP2;P2;SDS_P1;SDS_P2;PMS_P1;PMS_P2;Temp;Humidity;BMP_temperature;BMP_pressure;BME280_temperature;BME280_humidity;BME280_pressure;Samples;Min_cycle;Max_cycle;Signal;HPM_P1;HPM_P2
2022/06/13 00:01:23;;;;;;;364.23;351.50;;;11.00;99.90;;;;;;5059740;28;20661;-83
2022/06/13 00:03:51;;;;;;;377.17;363.47;;;10.90;99.90;;;;;;5057364;28;20467;-82
2022/06/13 00:06:18;;;;;;;399.60;384.87;;;10.90;99.90;;;;;;5058743;28;20455;-83
2022/06/13 00:08:47;;;;;;;440.73;424.20;;;10.80;99.90;;;;;;5056726;28;20452;-82
2022/06/13 00:11:16;;;;;;;485.03;464.73;;;10.70;99.90;;;;;;5058042;28;20842;-83
2022/06/13 00:13:45;;;;;;;486.83;465.97;;;10.70;99.90;;;;;;5057765;28;20493;-83
2022/06/13 00:16:14;;;;;;;496.77;475.67;;;10.80;99.90;;;;;;5057335;28;20513;-83
2022/06/13 00:18:47;;;;;;;451.40;433.00;;;10.80;99.90;;;;;;5057072;28;20452;-82
2022/06/13 00:21:14;;;;;;;449.77;432.40;;;10.80;99.90;;;;;;5057649;28;20647;-83
2022/06/13 00:23:41;;;;;;;514.53;492.87;;;10.60;99.90;;;;;;5057576;28;20478;-83
2022/06/13 00:26:09;;;;;;;522.13;499.37;;;10.70;99.90;;;;;;5057299;28;20448;-82
2022/06/13 00:28:36;;;;;;;503.27;481.23;;;10.60;99.90;;;;;;5057056;28;20448;-83
2022/06/13 00:31:02;;;;;;;535.77;512.97;;;10.60;99.90;;;;;;5057743;28;20912;-83
2022/06/13 00:33:29;;;;;;;562.93;538.07;;;10.50;99.90;;;;;;5037597;28;20475;-85
2022/06/13 00:35:56;;;;;;;501.97;482.13;;;10.60;99.90;;;;;;5037102;28;20814;-85
2022/06/13 00:38:23;;;;;;;519.13;497.60;;;10.80;99.90;;;;;;5056361;28;20459;-85
2022/06/13 00:40:49;;;;;;;505.23;484.10;;;10.60;99.90;;;;;;5057131;28;20985;-84
2022/06/13 00:43:18;;;;;;;496.17;476.07;;;10.70;99.90;;;;;;5056899;28;20490;-85
2022/06/13 00:45:45;;;;;;;494.97;475.07;;;10.70;99.90;;;;;;5057391;28;20451;-84
2022/06/13 00:48:13;;;;;;;525.10;502.97;;;10.60;99.90;;;;;;5056076;28;20455;-84
2022/06/13 00:50:47;;;;;;;474.63;455.80;;;10.60;99.90;;;;;;5057093;28;20458;-83
2022/06/13 00:53:22;;;;;;;486.60;467.10;;;10.60;99.90;;;;;;5053014;28;20475;-84
2022/06/13 00:55:52;;;;;;;451.07;432.97;;;10.60;99.90;;;;;;5056491;28;20458;-83
2022/06/13 00:58:21;;;;;;;436.60;419.83;;;10.60;99.90;;;;;;5056300;28;20455;-83
2022/06/13 01:00:53;;;;;;;391.00;376.37;;;10.60;99.90;;;;;;5056847;28;20839;-83
2022/06/13 01:03:19;;;;;;;408.20;392.60;;;10.70;99.90;;;;;;5056948;28;20474;-83
2022/06/13 01:05:49;;;;;;;405.40;390.50;;;10.60;99.90;;;;;;5049489;28;20804;-84
2022/06/13 01:08:18;;;;;;;451.27;433.73;;;10.60;99.90;;;;;;5055398;28;20494;-84
2022/06/13 01:13:45;;;;;;;523.87;501.80;;;10.60;99.90;;;;;;5056765;28;20906;-83
2022/06/13 01:16:25;;;;;;;481.63;461.70;;;10.60;99.90;;;;;;5056507;28;20979;-84
2022/06/13 01:19:12;;;;;;;502.30;481.67;;;10.40;99.90;;;;;;5055949;28;20459;-82
2022/06/13 01:21:48;;;;;;;458.60;440.43;;;10.30;99.90;;;;;;5056099;28;20462;-83
2022/06/13 01:25:11;;;;;;;570.60;546.00;;;10.20;99.90;;;;;;5056213;28;20478;-82
2022/06/13 01:28:01;;;;;;;536.20;513.90;;;10.00;99.90;;;;;;4975489;28;20462;-83
2022/06/13 01:30:44;;;;;;;572.40;547.30;;;10.00;99.90;;;;;;4962744;28;20459;-83
2022/06/13 01:33:16;;;;;;;613.23;584.17;;;10.00;99.90;;;;;;5033835;28;20482;-82
2022/06/13 01:36:02;;;;;;;662.60;628.47;;;9.90;99.90;;;;;;5056460;28;20447;-82
2022/06/13 01:38:43;;;;;;;618.87;587.17;;;9.90;99.90;;;;;;5057628;28;20459;-83
2022/06/13 01:41:17;;;;;;;624.80;592.93;;;9.80;99.90;;;;;;5057932;28;20510;-83
2022/06/13 01:43:55;;;;;;;643.00;608.50;;;9.70;99.90;;;;;;5058306;28;20509;-83
2022/06/13 01:46:31;;;;;;;627.90;595.10;;;9.70;99.90;;;;;;5057742;28;20456;-82
2022/06/13 01:49:08;;;;;;;664.27;628.13;;;9.70;99.90;;;;;;5055908;28;20462;-83
2022/06/13 01:51:41;;;;;;;697.30;657.70;;;9.80;99.90;;;;;;5058410;28;20455;-83
2022/06/13 01:54:16;;;;;;;636.07;601.37;;;9.90;99.90;;;;;;5076255;28;20931;-83
2022/06/13 01:56:53;;;;;;;670.63;633.00;;;10.00;99.90;;;;;;5076458;28;20453;-83
2022/06/13 01:59:23;;;;;;;590.07;559.47;;;10.10;99.90;;;;;;5074914;28;20454;-82
2022/06/13 02:01:56;;;;;;;599.03;567.47;;;10.10;99.90;;;;;;5056760;28;20475;-81
2022/06/13 02:04:26;;;;;;;674.07;635.57;;;10.20;99.90;;;;;;5056369;28;20504;-83
2022/06/13 02:06:58;;;;;;;649.50;612.93;;;10.30;99.90;;;;;;5055269;28;20460;-83
2022/06/13 02:09:29;;;;;;;634.27;599.13;;;10.40;99.90;;;;;;5054759;28;20458;-82
2022/06/13 02:11:57;;;;;;;618.40;585.00;;;10.50;99.90;;;;;;5035205;28;20476;-83
2022/06/13 02:14:30;;;;;;;592.70;561.20;;;10.50;99.90;;;;;;5035969;28;20452;-83
2022/06/13 02:17:02;;;;;;;516.07;490.77;;;10.50;99.90;;;;;;5055798;28;20447;-83
2022/06/13 02:19:34;;;;;;;500.93;478.00;;;10.60;99.90;;;;;;5054985;28;20451;-83
2022/06/13 02:22:08;;;;;;;487.50;465.67;;;10.60;99.90;;;;;;5055642;28;20471;-83
2022/06/13 02:24:39;;;;;;;433.20;415.30;;;10.70;99.90;;;;;;5055536;28;20996;-83
2022/06/13 02:27:09;;;;;;;437.03;419.23;;;10.70;99.90;;;;;;5055751;28;20447;-84
2022/06/13 02:29:41;;;;;;;422.57;405.97;;;10.60;99.90;;;;;;5055464;28;20534;-84
2022/06/13 02:32:13;;;;;;;429.10;412.03;;;10.60;99.90;;;;;;5056366;28;20475;-83
2022/06/13 02:34:43;;;;;;;428.53;410.00;;;10.60;99.90;;;;;;5055427;28;20444;-83
2022/06/13 02:37:16;;;;;;;424.77;408.10;;;10.60;99.90;;;;;;5035871;28;20456;-83
2022/06/13 02:39:57;;;;;;;480.80;461.20;;;10.50;99.90;;;;;;5054199;28;20456;-83
2022/06/13 02:42:28;;;;;;;497.80;476.93;;;10.40;99.90;;;;;;5072088;22;20473;-82
2022/06/13 02:45:01;;;;;;;484.50;464.33;;;10.40;99.90;;;;;;5043393;28;20460;-82
2022/06/13 02:47:36;;;;;;;556.10;530.47;;;10.40;99.90;;;;;;5043030;28;20458;-81
2022/06/13 02:50:07;;;;;;;572.90;545.90;;;10.30;99.90;;;;;;5042579;28;20439;-83
2022/06/13 02:52:40;;;;;;;645.77;613.57;;;10.30;99.90;;;;;;5056090;28;20478;-82
2022/06/13 02:55:09;;;;;;;647.57;614.93;;;10.30;99.90;;;;;;5062328;28;20851;-82
2022/06/13 02:57:51;;;;;;;631.33;600.00;;;10.30;99.90;;;;;;5062313;28;20454;-82
2022/06/13 03:00:24;;;;;;;658.43;624.23;;;10.30;99.90;;;;;;5060673;28;20460;-81
2022/06/13 03:03:00;;;;;;;703.80;665.10;;;10.20;99.90;;;;;;5062549;28;21105;-82
2022/06/13 03:05:41;;;;;;;722.03;680.67;;;10.20;99.90;;;;;;5063211;28;20471;-83
2022/06/13 03:08:19;;;;;;;700.00;661.27;;;10.30;99.90;;;;;;5059887;28;20455;-81
2022/06/13 03:10:55;;;;;;;703.07;664.77;;;10.20;99.90;;;;;;5063497;28;20466;-81
2022/06/13 03:13:30;;;;;;;654.93;621.30;;;10.30;99.90;;;;;;5064301;28;20539;-82
2022/06/13 03:16:02;;;;;;;671.83;635.97;;;10.10;99.90;;;;;;5064790;28;20883;-81
2022/06/13 03:18:35;;;;;;;661.87;627.07;;;10.20;99.90;;;;;;5050082;28;20545;-81
2022/06/13 03:21:07;;;;;;;646.20;612.73;;;10.20;99.90;;;;;;5057188;28;20444;-81
2022/06/13 03:23:39;;;;;;;654.87;620.47;;;10.20;99.90;;;;;;5059395;28;20467;-82
2022/06/13 03:26:10;;;;;;;659.53;623.43;;;10.20;99.90;;;;;;5063398;28;20478;-82
2022/06/13 03:28:45;;;;;;;617.47;586.50;;;10.20;99.90;;;;;;5044443;28;20459;-82
2022/06/13 03:31:16;;;;;;;627.07;595.53;;;10.30;99.90;;;;;;5061555;28;20510;-82
2022/06/13 03:33:47;;;;;;;609.13;579.07;;;10.30;99.90;;;;;;5065572;28;20472;-82
2022/06/13 03:36:18;;;;;;;609.23;577.93;;;10.40;99.90;;;;;;5064141;28;20471;-82
2022/06/13 03:38:50;;;;;;;601.93;572.23;;;10.30;99.90;;;;;;5048887;28;20451;-83
2022/06/13 03:41:20;;;;;;;598.67;569.27;;;10.40;99.90;;;;;;5067729;28;20454;-82
2022/06/13 03:43:53;;;;;;;673.27;636.17;;;10.50;99.90;;;;;;5066347;28;20728;-82
2022/06/13 03:46:38;;;;;;;612.17;581.60;;;10.70;99.90;;;;;;5066648;28;20450;-82
2022/06/13 03:49:54;;;;;;;612.37;581.67;;;10.70;99.90;;;;;;5067753;28;20927;-82
2022/06/13 03:52:21;;;;;;;555.60;528.97;;;10.70;99.90;;;;;;5028709;28;20467;-78
2022/06/13 03:54:52;;;;;;;528.20;504.10;;;10.70;99.90;;;;;;5060407;28;20858;-80
2022/06/13 03:57:24;;;;;;;539.30;515.70;;;10.70;99.90;;;;;;5043174;28;21252;-80
2022/06/13 03:59:55;;;;;;;558.37;532.47;;;10.80;99.90;;;;;;5063142;28;20451;-81
2022/06/13 04:02:28;;;;;;;583.27;556.33;;;10.80;99.90;;;;;;5066233;28;20460;-81
2022/06/13 04:04:56;;;;;;;587.93;559.90;;;10.80;99.90;;;;;;5054475;28;20446;-81
2022/06/13 04:07:28;;;;;;;584.13;556.03;;;10.80;99.90;;;;;;5066802;28;20523;-81
2022/06/13 04:10:00;;;;;;;624.67;592.90;;;10.80;99.90;;;;;;5065162;28;20443;-81
2022/06/13 04:12:51;;;;;;;636.53;605.10;;;10.80;99.90;;;;;;5068887;28;20473;-81
2022/06/13 04:15:48;;;;;;;577.07;550.80;;;11.10;99.90;;;;;;5052138;28;20475;-80
2022/06/13 04:18:24;;;;;;;519.43;497.43;;;11.10;99.90;;;;;;5065659;28;20464;-79
2022/06/13 04:21:00;;;;;;;547.87;523.07;;;11.10;99.90;;;;;;5067855;28;20463;-81
2022/06/13 04:23:33;;;;;;;588.33;560.07;;;11.20;99.90;;;;;;5065229;28;20470;-81
2022/06/13 04:26:08;;;;;;;613.53;583.17;;;11.20;99.90;;;;;;5050802;28;20856;-81
2022/06/13 04:28:43;;;;;;;585.37;556.00;;;11.40;99.90;;;;;;5065580;28;20455;-81
2022/06/13 04:31:12;;;;;;;523.20;498.70;;;11.50;99.90;;;;;;5066461;28;20447;-81
2022/06/13 04:33:42;;;;;;;455.83;435.23;;;11.60;99.90;;;;;;5065742;28;20467;-81
2022/06/13 04:36:13;;;;;;;417.83;399.87;;;11.80;99.90;;;;;;5066079;28;20498;-82
2022/06/13 04:38:43;;;;;;;316.67;304.00;;;12.00;99.90;;;;;;5067521;28;20448;-81
2022/06/13 04:41:11;;;;;;;256.37;246.80;;;12.10;99.90;;;;;;5068932;28;20448;-81
2022/06/13 04:43:42;;;;;;;222.43;214.70;;;12.30;99.90;;;;;;5069567;28;20551;-81
2022/06/13 04:46:14;;;;;;;188.63;181.30;;;12.40;99.90;;;;;;5068232;28;20483;-81
2022/06/13 04:48:43;;;;;;;167.20;161.10;;;12.40;99.90;;;;;;5066584;28;20454;-80
2022/06/13 04:51:15;;;;;;;84.90;81.60;;;12.60;99.90;;;;;;5068613;28;20452;-81
2022/06/13 04:53:51;;;;;;;46.50;44.30;;;12.70;99.90;;;;;;5059577;28;20467;-81
2022/06/13 04:56:27;;;;;;;30.53;28.63;;;12.80;99.90;;;;;;5058826;28;20518;-81
2022/06/13 04:59:00;;;;;;;22.73;20.37;;;12.90;99.90;;;;;;5058271;28;20478;-81
2022/06/13 05:01:32;;;;;;;16.57;14.97;;;13.00;99.60;;;;;;5059311;28;20535;-81
2022/06/13 05:04:01;;;;;;;14.37;13.00;;;13.20;99.60;;;;;;5057394;28;20558;-80
2022/06/13 05:06:33;;;;;;;11.43;10.33;;;13.30;99.00;;;;;;5057161;28;20452;-81
2022/06/13 05:09:03;;;;;;;13.20;8.93;;;13.50;97.70;;;;;;5061804;28;20455;-81
2022/06/13 05:11:33;;;;;;;8.47;7.30;;;13.70;97.10;;;;;;5063678;28;20453;-81
2022/06/13 05:14:05;;;;;;;13.60;7.30;;;13.70;97.50;;;;;;5063580;28;20472;-81
2022/06/13 05:16:41;;;;;;;14.67;12.47;;;13.80;95.30;;;;;;5062855;28;20470;-81
2022/06/13 05:19:25;;;;;;;15.97;9.83;;;13.90;99.30;;;;;;5062240;28;20443;-81
2022/06/13 05:22:06;;;;;;;12.67;11.47;;;13.80;98.20;;;;;;5063701;28;20447;-81
2022/06/13 05:24:56;;;;;;;14.30;10.50;;;13.80;98.90;;;;;;5062151;28;20451;-81
2022/06/13 05:27:22;;;;;;;13.13;11.10;;;13.90;99.20;;;;;;5062591;28;20454;-81
2022/06/13 05:29:49;;;;;;;13.50;7.70;;;14.00;96.30;;;;;;5061203;28;20444;-81
2022/06/13 05:32:20;;;;;;;13.07;7.67;;;14.20;97.20;;;;;;5061589;28;20506;-81
2022/06/13 05:34:56;;;;;;;18.07;5.43;;;14.30;94.40;;;;;;5056019;28;20456;-81
2022/06/13 05:37:25;;;;;;;18.17;6.33;;;14.30;92.70;;;;;;5056227;28;20451;-81
2022/06/13 05:39:52;;;;;;;12.17;6.63;;;14.10;93.00;;;;;;5057551;28;20459;-80
2022/06/13 05:42:21;;;;;;;17.23;8.97;;;14.20;95.60;;;;;;5058980;28;20467;-80
2022/06/13 05:44:48;;;;;;;16.83;11.37;;;14.20;96.80;;;;;;5053650;28;20490;-80
2022/06/13 05:47:18;;;;;;;13.50;8.50;;;14.30;97.20;;;;;;5059409;28;20458;-82
2022/06/13 05:49:45;;;;;;;16.03;13.03;;;14.70;95.80;;;;;;5059523;28;20928;-82
2022/06/13 05:52:12;;;;;;;14.90;12.57;;;14.90;96.30;;;;;;5059594;28;20450;-80
2022/06/13 05:54:40;;;;;;;12.00;7.13;;;15.20;96.30;;;;;;5060678;28;20462;-81
2022/06/13 05:57:07;;;;;;;14.13;6.00;;;15.20;93.10;;;;;;5058101;28;20467;-82
2022/06/13 05:59:34;;;;;;;11.97;5.23;;;15.50;91.30;;;;;;5053449;28;20449;-82
2022/06/13 06:02:00;;;;;;;13.40;5.60;;;15.50;89.70;;;;;;5055210;28;20456;-81
2022/06/13 06:04:27;;;;;;;9.90;4.60;;;15.70;88.40;;;;;;5054905;28;20458;-81
2022/06/13 06:06:54;;;;;;;10.60;4.17;;;15.80;82.20;;;;;;5053929;28;20466;-82
2022/06/13 06:09:21;;;;;;;8.30;4.87;;;15.80;79.00;;;;;;5053844;28;20457;-80
2022/06/13 06:11:49;;;;;;;14.23;5.72;;;15.80;85.20;;;;;;5054295;28;20463;-81
2022/06/13 06:14:16;;;;;;;14.47;6.00;;;15.80;81.10;;;;;;5054275;28;20570;-81
2022/06/13 06:16:43;;;;;;;10.50;5.00;;;16.10;82.50;;;;;;5054319;28;20506;-81
2022/06/13 06:19:12;;;;;;;16.17;4.97;;;16.20;81.20;;;;;;5055169;28;20455;-81
2022/06/13 06:21:40;;;;;;;20.10;4.47;;;16.60;81.10;;;;;;5059063;28;20553;-82
2022/06/13 06:24:07;;;;;;;10.50;4.60;;;17.20;77.80;;;;;;5058254;28;20556;-82
2022/06/13 06:26:34;;;;;;;13.53;4.33;;;17.90;73.30;;;;;;5058126;28;20452;-81
2022/06/13 06:29:02;;;;;;;11.23;3.97;;;17.90;62.80;;;;;;5058298;28;20823;-81
2022/06/13 06:31:29;;;;;;;15.70;4.73;;;17.60;61.70;;;;;;5059219;28;20457;-82
2022/06/13 06:33:56;;;;;;;14.40;5.17;;;17.60;63.50;;;;;;5058843;28;20516;-81
2022/06/13 06:36:23;;;;;;;16.00;5.97;;;17.50;61.30;;;;;;5059375;28;20563;-81
2022/06/13 06:38:49;;;;;;;12.70;5.97;;;17.40;61.40;;;;;;5058395;28;20453;-82
2022/06/13 06:41:16;;;;;;;13.87;5.20;;;17.30;62.30;;;;;;5058872;28;20459;-81
2022/06/13 06:43:43;;;;;;;11.90;5.63;;;17.70;61.40;;;;;;5058620;28;20483;-82
2022/06/13 06:46:12;;;;;;;12.00;5.73;;;17.70;61.40;;;;;;5059070;28;20530;-82
2022/06/13 06:48:38;;;;;;;9.43;4.93;;;18.10;59.90;;;;;;5058015;28;20455;-82
2022/06/13 06:51:07;;;;;;;11.60;5.30;;;18.50;60.50;;;;;;5058433;28;20458;-81
2022/06/13 07:01:49;;;;;;;17.40;5.73;;;18.20;54.20;;;;;;5058073;28;20441;-82
2022/06/13 07:04:15;;;;;;;12.43;5.30;;;18.20;57.20;;;;;;5057933;28;20480;-82
2022/06/13 07:06:42;;;;;;;16.07;5.90;;;17.90;57.20;;;;;;5059041;28;20449;-82
2022/06/13 07:09:09;;;;;;;13.63;6.10;;;17.70;58.10;;;;;;5057839;28;20973;-83
2022/06/13 07:11:54;;;;;;;17.13;5.47;;;17.80;58.90;;;;;;5058878;28;20453;-82
2022/06/13 07:14:22;;;;;;;11.50;5.10;;;17.70;59.70;;;;;;5058648;28;20511;-83
2022/06/13 07:16:50;;;;;;;16.13;6.43;;;18.20;57.00;;;;;;5059618;28;20559;-82
2022/06/13 07:19:17;;;;;;;19.63;6.80;;;18.30;56.50;;;;;;5059019;28;20480;-82
2022/06/13 07:21:44;;;;;;;14.40;6.50;;;18.00;56.20;;;;;;5059586;28;20903;-83
2022/06/13 07:24:11;;;;;;;16.50;7.60;;;18.20;56.10;;;;;;5060013;28;20471;-83
2022/06/13 07:26:38;;;;;;;14.87;7.27;;;18.10;56.30;;;;;;5059519;28;20502;-82
2022/06/13 07:29:05;;;;;;;17.40;6.43;;;17.90;56.20;;;;;;5058842;28;20475;-82
2022/06/13 07:31:36;;;;;;;18.03;7.73;;;17.80;58.10;;;;;;5059085;28;20458;-84
2022/06/13 07:34:06;;;;;;;19.37;9.33;;;18.10;57.90;;;;;;5058814;28;20484;-82
2022/06/13 07:36:33;;;;;;;24.20;10.20;;;18.20;57.70;;;;;;5059198;28;20482;-84
2022/06/13 07:39:00;;;;;;;19.20;9.57;;;18.40;57.70;;;;;;5063238;28;20446;-82
2022/06/13 07:41:27;;;;;;;21.50;9.30;;;18.70;59.40;;;;;;5062397;28;20448;-83
2022/06/13 07:43:55;;;;;;;21.50;10.37;;;18.80;56.70;;;;;;5058448;28;20490;-79
2022/06/13 07:46:30;;;;;;;20.07;10.10;;;19.00;54.50;;;;;;5060817;28;20443;-82
2022/06/13 07:48:57;;;;;;;28.67;11.47;;;19.50;58.50;;;;;;5060308;28;20464;-84
2022/06/13 07:51:26;;;;;;;25.17;11.47;;;19.40;55.90;;;;;;5060870;28;20479;-82
2022/06/13 07:53:54;;;;;;;17.17;10.37;;;19.40;55.10;;;;;;5057725;28;20540;-82
2022/06/13 07:56:23;;;;;;;19.83;10.20;;;19.60;54.90;;;;;;5058227;28;21006;-81
2022/06/13 07:58:52;;;;;;;21.03;10.30;;;19.60;55.20;;;;;;5057636;28;20982;-84
2022/06/13 08:02:02;;;;;;;;;;;;;;;;;;;;;
2022/06/13 08:04:29;;;;;;;22.58;10.88;;;19.20;56.90;;;;;;5046498;28;20490;-83
2022/06/13 08:07:10;;;;;;;20.83;9.90;;;19.90;54.50;;;;;;5058054;28;20232;-83
2022/06/13 08:09:36;;;;;;;17.70;8.50;;;20.20;53.40;;;;;;5058560;28;20455;-83
2022/06/13 08:12:04;;;;;;;20.53;8.23;;;20.00;53.20;;;;;;5059098;28;20465;-84
2022/06/13 08:14:30;;;;;;;20.73;8.77;;;19.70;52.10;;;;;;5057960;28;20449;-83
2022/06/13 08:16:57;;;;;;;14.93;6.60;;;19.60;55.60;;;;;;5059289;28;20456;-83
2022/06/13 08:19:24;;;;;;;26.40;7.67;;;19.60;48.50;;;;;;5057190;28;20432;-83
2022/06/13 08:21:51;;;;;;;15.47;7.67;;;20.00;49.70;;;;;;5057683;28;20448;-83
2022/06/13 08:24:19;;;;;;;13.50;5.37;;;20.40;49.40;;;;;;5057371;28;20501;-83
2022/06/13 08:26:46;;;;;;;13.73;5.80;;;20.90;42.20;;;;;;5058342;28;20485;-83
2022/06/13 08:29:13;;;;;;;19.23;6.77;;;20.70;41.10;;;;;;5057695;28;20453;-83
2022/06/13 08:31:40;;;;;;;20.57;6.93;;;21.40;42.60;;;;;;5058446;28;20454;-83
2022/06/13 08:34:08;;;;;;;12.20;5.33;;;21.70;42.60;;;;;;5058742;28;20451;-83
2022/06/13 08:36:34;;;;;;;15.00;6.00;;;21.90;39.80;;;;;;5057995;28;20493;-83
2022/06/13 08:39:01;;;;;;;14.88;6.20;;;21.60;32.60;;;;;;5056444;28;20474;-83
2022/06/13 08:41:41;;;;;;;11.50;5.30;;;22.40;32.50;;;;;;5056540;28;20204;-81
2022/06/13 08:44:17;;;;;;;12.80;4.63;;;22.20;34.50;;;;;;5057787;28;20478;-84
2022/06/13 08:46:55;;;;;;;19.50;4.47;;;22.30;28.70;;;;;;5057272;28;20471;-83
2022/06/13 08:49:29;;;;;;;16.60;5.03;;;22.60;24.80;;;;;;5056059;28;20455;-83
2022/06/13 08:52:07;;;;;;;7.77;3.93;;;22.10;29.40;;;;;;5056751;28;20465;-83
2022/06/13 08:54:37;;;;;;;10.80;3.70;;;22.30;25.70;;;;;;5056585;28;20454;-82
2022/06/13 08:57:09;;;;;;;13.13;3.63;;;22.10;25.80;;;;;;5056424;28;20454;-82
2022/06/13 08:59:41;;;;;;;8.80;4.07;;;22.00;24.80;;;;;;5056075;28;20856;-83
2022/06/13 09:02:12;;;;;;;12.90;4.60;;;21.50;25.90;;;;;;5056307;28;20452;-82
2022/06/13 09:04:44;;;;;;;4.80;2.30;;;21.20;29.70;;;;;;5056163;28;20464;-82
2022/06/13 09:07:19;;;;;;;14.00;4.53;;;20.20;26.00;;;;;;5055784;28;20482;-83
2022/06/13 09:09:51;;;;;;;11.73;4.10;;;20.40;31.50;;;;;;5055485;28;20465;-83
2022/06/13 09:12:23;;;;;;;10.30;3.87;;;20.40;27.30;;;;;;5055892;28;20671;-82
2022/06/13 09:14:59;;;;;;;11.00;5.47;;;19.90;32.20;;;;;;5055609;28;20455;-83
2022/06/13 09:17:32;;;;;;;11.50;3.80;;;19.90;34.00;;;;;;5055679;28;20461;-83
2022/06/13 09:20:06;;;;;;;8.50;3.50;;;20.00;31.30;;;;;;5055355;28;20479;-83
2022/06/13 09:22:47;;;;;;;13.30;3.83;;;19.70;31.20;;;;;;5055874;28;20473;-83
2022/06/13 09:25:21;;;;;;;9.00;3.93;;;19.40;34.70;;;;;;5055282;28;20451;-83
2022/06/13 09:27:57;;;;;;;13.30;4.20;;;19.20;34.60;;;;;;5055190;28;20470;-83
2022/06/13 09:30:27;;;;;;;8.83;3.70;;;19.10;36.80;;;;;;5055094;28;20464;-83
2022/06/13 09:32:56;;;;;;;8.40;3.03;;;19.00;30.30;;;;;;5055685;28;20474;-82
2022/06/13 09:35:26;;;;;;;10.63;3.00;;;19.00;28.90;;;;;;5055594;28;20461;-83
2022/06/13 09:38:01;;;;;;;17.93;3.53;;;19.30;30.80;;;;;;5055138;28;20810;-82
2022/06/13 09:40:39;;;;;;;13.40;3.77;;;19.50;31.70;;;;;;5055193;28;20902;-84
2022/06/13 09:43:22;;;;;;;7.20;3.23;;;19.90;30.90;;;;;;5054905;28;20987;-83
2022/06/13 09:45:58;;;;;;;19.30;4.43;;;19.90;29.00;;;;;;5055872;28;20840;-82
2022/06/13 09:48:35;;;;;;;7.13;3.47;;;19.90;29.00;;;;;;5054043;28;20462;-82
2022/06/13 09:51:10;;;;;;;8.00;3.53;;;19.70;28.60;;;;;;5055741;28;20460;-82
2022/06/13 09:53:46;;;;;;;8.70;3.83;;;19.80;29.20;;;;;;5054189;28;20993;-82
2022/06/13 09:56:19;;;;;;;12.47;3.77;;;19.40;29.20;;;;;;5054911;28;20458;-83
2022/06/13 09:58:59;;;;;;;10.20;3.53;;;19.20;30.00;;;;;;5054124;28;20469;-83
2022/06/13 10:01:34;;;;;;;11.90;4.10;;;18.90;31.10;;;;;;5054618;28;20451;-82
2022/06/13 10:04:08;;;;;;;15.63;3.57;;;18.90;30.00;;;;;;5054616;28;20471;-82
2022/06/13 10:06:41;;;;;;;15.37;3.50;;;19.20;33.70;;;;;;5055062;28;20486;-82
2022/06/13 10:09:23;;;;;;;10.60;3.43;;;20.30;33.70;;;;;;5054073;28;20451;-82
2022/06/13 10:11:57;;;;;;;9.40;3.37;;;20.90;33.10;;;;;;5054423;28;20462;-82
2022/06/13 10:14:47;;;;;;;11.47;3.70;;;21.10;25.00;;;;;;5054299;28;20452;-83
2022/06/13 10:17:30;;;;;;;9.50;3.00;;;22.20;25.00;;;;;;5054106;28;20458;-83
2022/06/13 10:20:03;;;;;;;8.77;2.93;;;22.70;20.20;;;;;;5054228;28;20456;-82
2022/06/13 10:22:37;;;;;;;11.23;3.83;;;23.90;22.50;;;;;;5054543;28;20501;-82
2022/06/13 10:25:16;;;;;;;6.03;2.50;;;23.10;16.90;;;;;;5054880;28;20421;-83
2022/06/13 10:27:49;;;;;;;8.27;2.70;;;22.40;16.40;;;;;;5054502;28;20471;-82
2022/06/13 10:30:29;;;;;;;13.70;2.97;;;22.20;17.90;;;;;;5054400;28;20944;-83
2022/06/13 10:33:12;;;;;;;9.77;2.93;;;22.70;17.30;;;;;;5054620;28;20471;-82
2022/06/13 10:35:48;;;;;;;8.53;2.70;;;21.70;11.60;;;;;;5054699;28;20463;-82
2022/06/13 10:38:30;;;;;;;9.90;2.30;;;22.40;17.60;;;;;;5053866;28;20458;-83
2022/06/13 10:40:57;;;;;;;11.43;3.20;;;23.30;15.70;;;;;;5054830;28;20470;-82
2022/06/13 10:43:25;;;;;;;11.30;2.93;;;23.70;12.40;;;;;;5054646;28;20464;-83
2022/06/13 10:45:53;;;;;;;7.33;3.00;;;24.20;13.00;;;;;;5054754;28;20457;-83
2022/06/13 10:48:24;;;;;;;6.93;2.43;;;24.40;8.40;;;;;;5052706;28;21023;-82
2022/06/13 10:50:56;;;;;;;15.03;2.50;;;23.80;8.70;;;;;;5054629;28;20451;-82
2022/06/13 10:53:27;;;;;;;6.70;2.10;;;23.30;10.10;;;;;;5054030;28;20525;-85
2022/06/13 10:55:56;;;;;;;8.87;2.30;;;22.20;12.60;;;;;;5054332;28;20455;-82
2022/06/13 10:58:27;;;;;;;7.70;2.50;;;21.70;15.60;;;;;;5053603;28;20470;-83
2022/06/13 11:01:13;;;;;;;14.80;3.30;;;21.70;15.20;;;;;;5053780;28;20462;-83
2022/06/13 11:03:44;;;;;;;12.60;2.80;;;22.40;13.90;;;;;;5054414;28;20475;-82
2022/06/13 11:06:19;;;;;;;8.27;2.00;;;22.40;13.70;;;;;;5056959;28;20476;-84
2022/06/13 11:08:46;;;;;;;8.10;2.90;;;22.40;8.40;;;;;;5057001;28;20518;-82
2022/06/13 11:11:15;;;;;;;8.03;1.90;;;23.20;8.50;;;;;;5058171;28;20454;-82
2022/06/13 11:13:44;;;;;;;6.90;2.20;;;22.20;8.00;;;;;;5057490;28;20467;-82
2022/06/13 11:24:46;;;;;;;10.50;2.47;;;24.90;4.40;;;;;;5058032;28;20438;-83
2022/06/13 11:30:21;;;;;;;10.40;2.10;;;24.80;1.40;;;;;;5057383;28;21119;-82
2022/06/13 11:32:58;;;;;;;8.73;2.10;;;25.00;1.00;;;;;;5058042;28;20482;-80
2022/06/13 11:35:31;;;;;;;7.70;2.20;;;25.00;1.00;;;;;;5055654;28;20455;-80
2022/06/13 11:38:14;;;;;;;6.70;1.80;;;25.10;1.00;;;;;;5055705;28;20447;-79
2022/06/13 11:40:41;;;;;;;6.73;1.87;;;24.60;1.00;;;;;;5056342;28;20430;-80
2022/06/13 11:43:19;;;;;;;9.83;1.93;;;25.20;1.00;;;;;;5055582;28;20487;-81
2022/06/13 11:45:55;;;;;;;7.23;2.13;;;25.80;1.00;;;;;;5056503;28;20430;-83
2022/06/13 11:48:24;;;;;;;8.57;1.90;;;25.90;1.00;;;;;;5054565;28;20478;-80
2022/06/13 11:50:54;;;;;;;6.43;1.80;;;25.80;1.00;;;;;;5056076;28;20455;-80
2022/06/13 11:56:09;;;;;;;6.60;2.30;;;25.80;1.00;;;;;;5055326;28;20429;-80
2022/06/13 11:58:41;;;;;;;4.80;1.53;;;24.40;1.00;;;;;;5054973;28;20849;-79
2022/06/13 12:01:23;;;;;;;6.40;1.97;;;22.80;3.40;;;;;;5055453;28;20451;-80
2022/06/13 12:04:04;;;;;;;8.17;1.53;;;21.60;5.50;;;;;;5054907;28;20888;-80
2022/06/13 12:06:37;;;;;;;7.60;2.27;;;21.10;7.20;;;;;;5055100;28;20449;-80
2022/06/13 12:09:15;;;;;;;8.40;1.97;;;20.50;6.00;;;;;;5054140;28;20487;-79
2022/06/13 12:11:45;;;;;;;10.20;2.00;;;20.40;8.30;;;;;;5054134;28;20462;-79
2022/06/13 12:14:13;;;;;;;6.07;1.90;;;20.20;12.80;;;;;;5054351;28;20557;-79
2022/06/13 12:16:45;;;;;;;6.63;1.70;;;19.90;12.40;;;;;;5053137;28;20460;-79
2022/06/13 12:19:23;;;;;;;7.53;2.13;;;19.40;15.60;;;;;;5053611;28;20553;-79
2022/06/13 12:21:56;;;;;;;5.97;1.90;;;19.30;17.10;;;;;;5054404;28;20456;-79
2022/06/13 12:24:31;;;;;;;7.50;2.07;;;19.50;19.40;;;;;;5054077;28;20494;-80
2022/06/13 12:27:06;;;;;;;6.07;2.20;;;20.00;14.50;;;;;;5053879;28;20454;-81
2022/06/13 12:30:05;;;;;;;8.73;2.30;;;21.50;16.30;;;;;;5053857;28;20463;-79
2022/06/13 12:32:35;;;;;;;8.30;2.20;;;22.70;7.60;;;;;;5048754;28;20482;-80
2022/06/13 12:35:50;;;;;;;5.70;1.73;;;23.40;5.70;;;;;;5054433;28;20965;-80
2022/06/13 12:38:32;;;;;;;5.20;1.80;;;24.30;3.90;;;;;;4991957;28;20463;-80
2022/06/13 12:41:11;;;;;;;7.00;2.20;;;24.50;1.00;;;;;;5053929;28;20451;-80
2022/06/13 12:43:52;;;;;;;7.17;2.07;;;23.10;1.00;;;;;;5053993;28;20501;-79
2022/06/13 12:46:45;;;;;;;6.17;1.33;;;22.10;5.60;;;;;;5054007;28;20449;-79
2022/06/13 12:49:34;;;;;;;4.70;1.30;;;23.20;6.70;;;;;;5054322;28;20475;-80
2022/06/13 12:52:08;;;;;;;4.77;1.10;;;23.60;2.10;;;;;;5055242;28;20455;-80
2022/06/13 12:54:53;;;;;;;5.33;1.57;;;22.80;1.00;;;;;;5057180;28;20459;-82
2022/06/13 12:57:53;;;;;;;6.30;2.27;;;22.10;1.00;;;;;;5057917;28;20438;-82
2022/06/13 13:00:23;;;;;;;6.53;1.60;;;22.90;2.50;;;;;;5051401;28;20897;-81
2022/06/13 13:03:27;;;;;;;5.20;1.90;;;23.90;1.00;;;;;;5058750;28;20479;-83
2022/06/13 13:06:10;;;;;;;9.43;2.03;;;24.40;1.00;;;;;;5060523;28;20939;-79
2022/06/13 13:08:57;;;;;;;8.57;2.27;;;25.40;1.00;;;;;;5057678;28;20492;-80
2022/06/13 13:11:58;;;;;;;4.63;1.80;;;26.00;1.00;;;;;;5059073;28;20441;-82
2022/06/13 13:14:41;;;;;;;4.90;1.70;;;26.30;1.00;;;;;;5059361;28;20542;-84
2022/06/13 13:17:24;;;;;;;6.00;2.20;;;24.40;1.00;;;;;;5057203;28;20805;-84
2022/06/13 13:20:01;;;;;;;6.20;1.70;;;22.70;1.00;;;;;;5057280;28;20428;-83
2022/06/13 13:22:35;;;;;;;6.20;1.87;;;21.80;3.60;;;;;;5057921;28;20475;-85
2022/06/13 13:25:20;;;;;;;4.90;1.77;;;21.70;3.90;;;;;;5056682;28;20457;-84
2022/06/13 13:27:59;;;;;;;6.37;2.20;;;22.60;3.60;;;;;;5055924;28;20477;-83